createdAt,value
2022-08-03T00:00:34.566Z,23.12
2022-08-03T00:03:05.086Z,23.07
2022-08-03T00:05:33.896Z,23.07
2022-08-03T00:08:02.146Z,23.05
2022-08-03T00:10:30.671Z,23.02
2022-08-03T00:12:58.827Z,23.01
2022-08-03T00:15:27.066Z,23.00
2022-08-03T00:17:55.198Z,23.02
2022-08-03T00:20:24.136Z,23.01
2022-08-03T00:22:52.999Z,22.95
2022-08-03T00:25:20.947Z,22.90
2022-08-03T00:27:50.424Z,22.87
2022-08-03T00:30:18.993Z,22.84
2022-08-03T00:32:48.029Z,22.81
2022-08-03T00:35:36.610Z,22.79
2022-08-03T00:38:05.737Z,22.77
2022-08-03T00:40:34.334Z,22.77
2022-08-03T00:43:06.129Z,22.76
2022-08-03T00:45:37.052Z,22.78
2022-08-03T00:48:19.591Z,22.80
2022-08-03T00:50:55.990Z,22.82
2022-08-03T00:53:25.496Z,22.85
2022-08-03T00:55:53.743Z,22.86
2022-08-03T00:58:21.992Z,22.87
2022-08-03T01:00:50.615Z,22.84
2022-08-03T01:03:18.922Z,22.84
2022-08-03T01:05:56.574Z,22.81
2022-08-03T01:08:52.723Z,22.82
2022-08-03T01:11:35.502Z,22.81
2022-08-03T01:14:19.187Z,22.82
2022-08-03T01:17:07.334Z,22.81
2022-08-03T01:19:47.381Z,22.77
2022-08-03T01:22:33.275Z,22.75
2022-08-03T01:25:01.201Z,22.73
2022-08-03T01:27:45.455Z,22.72
2022-08-03T01:30:14.018Z,22.70
2022-08-03T01:32:58.669Z,22.65
2022-08-03T01:35:31.894Z,22.60
2022-08-03T01:38:07.140Z,22.52
2022-08-03T01:40:37.843Z,22.41
2022-08-03T01:43:08.437Z,22.34
2022-08-03T01:45:37.815Z,22.29
2022-08-03T01:48:07.961Z,22.23
2022-08-03T01:50:36.305Z,22.17
2022-08-03T01:53:05.624Z,22.15
2022-08-03T01:55:36.741Z,22.14
2022-08-03T01:58:07.984Z,22.17
2022-08-03T02:00:37.893Z,22.18
2022-08-03T02:03:07.417Z,22.21
2022-08-03T02:05:38.239Z,22.19
2022-08-03T02:08:09.140Z,22.18
2022-08-03T02:10:39.070Z,22.14
2022-08-03T02:13:09.073Z,22.06
2022-08-03T02:15:37.981Z,22.01
2022-08-03T02:18:08.984Z,21.96
2022-08-03T02:20:39.250Z,21.92
2022-08-03T02:23:07.499Z,21.92
2022-08-03T02:25:51.300Z,21.91
2022-08-03T02:28:26.765Z,21.94
2022-08-03T02:30:57.116Z,21.93
2022-08-03T02:33:33.386Z,21.95
2022-08-03T02:36:02.963Z,21.94
2022-08-03T02:38:37.252Z,21.89
2022-08-03T02:41:15.407Z,21.86
2022-08-03T02:44:05.869Z,21.84
2022-08-03T02:46:38.971Z,21.83
2022-08-03T02:49:40.789Z,21.81
2022-08-03T02:51:59.281Z,21.82
2022-08-03T02:54:29.177Z,21.80
2022-08-03T02:56:59.243Z,21.76
2022-08-03T02:59:30.034Z,21.72
2022-08-03T03:02:01.094Z,21.68
2022-08-03T03:04:33.272Z,21.67
2022-08-03T03:07:04.442Z,21.63
2022-08-03T03:09:40.393Z,21.63
2022-08-03T03:12:13.623Z,21.63
2022-08-03T03:14:42.242Z,21.61
2022-08-03T03:17:12.044Z,21.59
2022-08-03T03:19:41.459Z,21.56
2022-08-03T03:22:11.140Z,21.52
2022-08-03T03:24:41.162Z,21.48
2022-08-03T03:27:09.712Z,21.47
2022-08-03T03:29:39.587Z,21.46
2022-08-03T03:32:09.283Z,21.46
2022-08-03T03:34:37.870Z,21.48
2022-08-03T03:37:06.104Z,21.44
2022-08-03T03:39:34.370Z,21.42
2022-08-03T03:42:03.842Z,21.41
2022-08-03T03:44:31.928Z,21.42
2022-08-03T03:47:00.318Z,21.43
2022-08-03T03:49:28.444Z,21.40
2022-08-03T03:51:57.229Z,21.41
2022-08-03T03:54:28.199Z,21.43
2022-08-03T03:56:57.828Z,21.43
2022-08-03T03:59:26.408Z,21.42
2022-08-03T04:01:59.190Z,21.39
2022-08-03T04:04:45.727Z,21.40
2022-08-03T04:07:32.692Z,21.43
2022-08-03T04:10:20.967Z,21.44
2022-08-03T04:12:52.627Z,21.47
2022-08-03T04:15:23.109Z,21.45
2022-08-03T04:17:54.203Z,21.44
2022-08-03T04:20:24.264Z,21.40
2022-08-03T04:22:54.781Z,21.38
2022-08-03T04:25:26.303Z,21.43
2022-08-03T04:28:29.600Z,21.52
2022-08-03T04:30:50.774Z,21.67
2022-08-03T04:33:20.397Z,21.80
2022-08-03T04:36:02.202Z,21.95
2022-08-03T04:38:39.260Z,22.10
2022-08-03T04:41:08.972Z,22.30
2022-08-03T04:43:40.757Z,22.55
2022-08-03T04:46:10.570Z,22.79
2022-08-03T04:48:43.469Z,23.00
2022-08-03T04:51:13.935Z,23.26
2022-08-03T04:53:44.370Z,23.45
2022-08-03T04:56:12.427Z,23.59
2022-08-03T04:58:40.709Z,23.77
2022-08-03T05:01:08.744Z,23.92
2022-08-03T05:03:36.634Z,23.99
2022-08-03T05:06:11.233Z,24.13
2022-08-03T05:08:46.118Z,24.25
2022-08-03T05:11:16.606Z,24.40
2022-08-03T05:13:47.776Z,24.52
2022-08-03T05:16:16.380Z,24.60
2022-08-03T05:18:45.147Z,24.67
2022-08-03T05:21:17.209Z,24.73
2022-08-03T05:23:45.707Z,24.81
2022-08-03T05:26:14.140Z,24.86
2022-08-03T05:28:50.670Z,24.98
2022-08-03T05:31:19.919Z,25.14
2022-08-03T05:33:49.593Z,25.25
2022-08-03T05:36:17.705Z,25.35
2022-08-03T05:38:46.005Z,25.40
2022-08-03T05:41:22.400Z,25.42
2022-08-03T05:43:53.864Z,25.50
2022-08-03T05:46:22.343Z,25.52
2022-08-03T05:48:50.865Z,25.56
2022-08-03T05:51:19.129Z,25.57
2022-08-03T05:53:47.196Z,25.61
2022-08-03T05:56:16.518Z,25.72
2022-08-03T05:58:46.785Z,25.80
2022-08-03T06:01:16.031Z,25.87
2022-08-03T06:03:45.033Z,25.96
2022-08-03T06:06:13.040Z,26.03
2022-08-03T06:08:42.432Z,26.11
2022-08-03T06:11:10.586Z,26.21
2022-08-03T06:13:39.120Z,26.30
2022-08-03T06:16:07.614Z,26.39
2022-08-03T06:18:36.894Z,26.51
2022-08-03T06:21:15.540Z,26.65
2022-08-03T06:23:53.179Z,26.75
2022-08-03T06:26:25.661Z,26.89
2022-08-03T06:28:55.372Z,26.95
2022-08-03T06:31:33.078Z,26.99
2022-08-03T06:34:32.990Z,27.08
2022-08-03T06:36:58.619Z,27.17
2022-08-03T06:39:30.272Z,27.17
2022-08-03T06:41:58.517Z,27.20
2022-08-03T06:44:26.557Z,27.27
2022-08-03T06:46:54.926Z,27.32
2022-08-03T06:49:23.221Z,27.32
2022-08-03T06:52:04.887Z,27.35
2022-08-03T06:54:35.717Z,27.33
2022-08-03T06:57:04.904Z,27.27
2022-08-03T07:00:09.141Z,27.29
2022-08-03T07:02:21.416Z,27.27
2022-08-03T07:04:50.324Z,27.30
2022-08-03T07:07:19.601Z,27.34
2022-08-03T07:09:57.077Z,27.41
2022-08-03T07:12:27.721Z,27.51
2022-08-03T07:15:00.907Z,27.65
2022-08-03T07:17:31.409Z,27.85
2022-08-03T07:20:00.242Z,28.02
2022-08-03T07:22:28.755Z,28.22
2022-08-03T07:24:56.901Z,28.35
2022-08-03T07:27:27.099Z,28.52
2022-08-03T07:29:55.739Z,28.73
2022-08-03T07:32:24.434Z,28.90
2022-08-03T07:34:55.804Z,29.15
2022-08-03T07:37:30.307Z,29.31
2022-08-03T07:39:58.647Z,29.55
2022-08-03T07:42:28.176Z,29.73
2022-08-03T07:44:56.626Z,29.93
2022-08-03T07:47:35.223Z,30.12
2022-08-03T07:50:06.447Z,30.36
2022-08-03T07:52:53.480Z,30.48
2022-08-03T07:55:25.332Z,30.60
2022-08-03T07:58:05.048Z,30.72
2022-08-03T08:00:34.184Z,30.93
2022-08-03T08:03:02.735Z,31.04
2022-08-03T08:05:30.920Z,31.21
2022-08-03T08:07:58.842Z,31.46
2022-08-03T08:10:27.375Z,31.62
2022-08-03T08:12:56.260Z,31.81
2022-08-03T08:15:24.592Z,31.96
2022-08-03T08:17:55.552Z,32.14
2022-08-03T08:20:31.337Z,32.28
2022-08-03T08:23:02.819Z,32.35
2022-08-03T08:25:33.202Z,32.39
2022-08-03T08:28:29.062Z,32.41
2022-08-03T08:30:51.950Z,32.50
2022-08-03T08:33:22.940Z,32.58
2022-08-03T08:35:53.651Z,32.73
2022-08-03T08:38:23.351Z,32.96
2022-08-03T08:40:52.016Z,33.12
2022-08-03T08:43:20.097Z,33.22
2022-08-03T08:45:51.365Z,33.18
2022-08-03T08:48:24.735Z,33.14
2022-08-03T08:50:54.634Z,33.10
2022-08-03T08:53:27.637Z,33.09
2022-08-03T08:56:01.055Z,33.15
2022-08-03T08:58:44.746Z,33.27
2022-08-03T09:01:13.225Z,33.35
2022-08-03T09:03:42.419Z,33.36
2022-08-03T09:06:10.317Z,33.35
2022-08-03T09:08:38.568Z,33.32
2022-08-03T09:11:07.957Z,33.44
2022-08-03T09:13:36.370Z,33.48
2022-08-03T09:16:13.599Z,33.47
2022-08-03T09:18:43.715Z,33.52
2022-08-03T09:21:32.262Z,33.53
2022-08-03T09:24:06.340Z,33.58
2022-08-03T09:26:37.075Z,33.68
2022-08-03T09:29:14.531Z,33.79
2022-08-03T09:31:45.456Z,33.86
2022-08-03T09:34:17.229Z,33.93
2022-08-03T09:36:47.618Z,34.01
2022-08-03T09:39:40.218Z,33.97
2022-08-03T09:42:15.523Z,34.00
2022-08-03T09:44:47.151Z,34.00
2022-08-03T09:47:28.396Z,33.98
2022-08-03T09:50:02.388Z,33.93
2022-08-03T09:52:48.324Z,33.90
2022-08-03T09:56:05.184Z,33.98
2022-08-03T09:58:10.932Z,34.09
2022-08-03T10:01:05.853Z,34.17
2022-08-03T10:04:03.578Z,34.25
2022-08-03T10:06:29.034Z,34.28
2022-08-03T10:09:16.934Z,34.32
2022-08-03T10:11:47.089Z,34.28
2022-08-03T10:14:21.202Z,34.29
2022-08-03T10:16:50.423Z,34.26
2022-08-03T10:19:19.504Z,34.18
2022-08-03T10:21:56.050Z,34.07
2022-08-03T10:24:27.633Z,34.03
2022-08-03T10:27:04.996Z,34.05
2022-08-03T10:29:39.104Z,34.12
2022-08-03T10:32:19.485Z,34.20
2022-08-03T10:34:52.191Z,34.16
2022-08-03T10:37:32.646Z,34.10
2022-08-03T10:40:01.401Z,34.11
2022-08-03T10:42:31.604Z,34.22
2022-08-03T10:45:05.401Z,34.32
2022-08-03T10:47:35.809Z,34.27
2022-08-03T10:50:05.284Z,34.30
2022-08-03T10:52:39.536Z,34.23
2022-08-03T10:55:56.982Z,34.27
2022-08-03T10:58:57.130Z,34.27
2022-08-03T11:02:02.316Z,34.38
2022-08-03T11:04:30.711Z,34.45
2022-08-03T11:07:17.831Z,34.54
2022-08-03T11:09:48.708Z,34.55
2022-08-03T11:12:32.171Z,34.57
2022-08-03T11:15:04.618Z,34.56
2022-08-03T11:17:46.365Z,34.56
2022-08-03T11:20:54.756Z,34.59
2022-08-03T11:24:04.234Z,34.76
2022-08-03T11:26:33.143Z,34.83
2022-08-03T11:29:37.713Z,34.84
2022-08-03T11:32:06.261Z,34.87
2022-08-03T11:34:34.615Z,34.94
2022-08-03T11:37:22.142Z,35.06
2022-08-03T11:39:53.230Z,35.21
2022-08-03T11:42:27.776Z,35.43
2022-08-03T11:45:00.798Z,35.50
2022-08-03T11:47:30.156Z,35.47
2022-08-03T11:50:00.349Z,35.42
2022-08-03T11:52:36.129Z,35.41
2022-08-03T11:55:09.149Z,35.49
2022-08-03T11:59:15.277Z,35.50
2022-08-03T12:00:32.946Z,35.62
2022-08-03T12:03:09.856Z,35.69
2022-08-03T12:05:51.121Z,35.61
2022-08-03T12:08:26.880Z,35.63
2022-08-03T12:10:56.958Z,35.57
2022-08-03T12:14:36.754Z,35.66
2022-08-03T12:16:33.700Z,35.85
2022-08-03T12:19:07.008Z,36.02
2022-08-03T12:21:35.224Z,36.01
2022-08-03T12:24:05.427Z,36.01
2022-08-03T12:26:58.631Z,36.00
2022-08-03T12:29:27.929Z,36.13
2022-08-03T12:31:56.480Z,36.22
2022-08-03T12:34:24.609Z,36.27
2022-08-03T12:36:59.633Z,36.25
2022-08-03T12:39:30.844Z,36.22
2022-08-03T12:41:59.691Z,36.18
2022-08-03T12:44:32.878Z,36.22
2022-08-03T12:47:02.217Z,36.35
2022-08-03T12:49:45.816Z,36.36
2022-08-03T12:52:14.070Z,36.45
2022-08-03T12:54:42.560Z,36.50
2022-08-03T12:57:15.961Z,36.46
2022-08-03T12:59:52.614Z,36.35
2022-08-03T13:02:23.642Z,36.30
2022-08-03T13:04:55.262Z,36.34
2022-08-03T13:07:23.548Z,36.46
2022-08-03T13:09:54.007Z,36.57
2022-08-03T13:12:24.955Z,36.65
2022-08-03T13:14:57.044Z,36.66
2022-08-03T13:17:25.732Z,36.66
2022-08-03T13:19:54.692Z,36.67
2022-08-03T13:22:24.442Z,36.51
2022-08-03T13:24:56.739Z,36.34
2022-08-03T13:28:03.893Z,36.32
2022-08-03T13:30:14.267Z,36.35
2022-08-03T13:32:58.844Z,36.34
2022-08-03T13:35:27.355Z,36.23
2022-08-03T13:37:55.276Z,36.22
2022-08-03T13:40:23.687Z,36.23
2022-08-03T13:42:59.098Z,36.32
2022-08-03T13:45:27.912Z,36.37
2022-08-03T13:47:56.031Z,36.36
2022-08-03T13:50:24.073Z,36.32
2022-08-03T13:52:52.224Z,36.30
2022-08-03T13:55:20.099Z,36.29
2022-08-03T13:58:11.928Z,36.29
2022-08-03T14:00:36.868Z,36.27
2022-08-03T14:03:13.145Z,36.03
2022-08-03T14:05:43.322Z,35.90
2022-08-03T14:08:12.757Z,35.86
2022-08-03T14:10:43.687Z,35.82
2022-08-03T14:13:16.697Z,35.84
2022-08-03T14:15:51.125Z,35.90
2022-08-03T14:18:28.971Z,35.88
2022-08-03T14:21:06.912Z,35.72
2022-08-03T14:23:38.014Z,35.49
2022-08-03T14:26:10.468Z,35.39
2022-08-03T14:28:38.656Z,35.31
2022-08-03T14:31:08.306Z,35.26
2022-08-03T14:33:56.092Z,35.33
2022-08-03T14:36:24.314Z,35.28
2022-08-03T14:38:52.622Z,35.21
2022-08-03T14:41:20.634Z,35.18
2022-08-03T14:44:01.214Z,35.18
2022-08-03T14:46:32.118Z,35.17
2022-08-03T14:50:29.343Z,35.17
2022-08-03T14:51:53.696Z,35.08
2022-08-03T14:54:23.099Z,34.83
2022-08-03T14:56:51.791Z,34.70
2022-08-03T14:59:19.773Z,34.65
2022-08-03T15:02:02.999Z,34.56
2022-08-03T15:04:34.950Z,34.58
2022-08-03T15:07:03.902Z,34.52
2022-08-03T15:09:32.120Z,34.47
2022-08-03T15:12:00.596Z,34.49
2022-08-03T15:14:33.443Z,34.48
2022-08-03T15:17:03.636Z,34.42
2022-08-03T15:20:03.567Z,34.36
2022-08-03T15:22:20.741Z,34.29
2022-08-03T15:24:53.427Z,34.07
2022-08-03T15:27:21.613Z,33.89
2022-08-03T15:30:06.831Z,33.90
2022-08-03T15:32:38.250Z,33.91
2022-08-03T15:35:06.549Z,33.84
2022-08-03T15:37:34.776Z,33.85
2022-08-03T15:40:02.908Z,33.87
2022-08-03T15:42:33.411Z,33.82
2022-08-03T15:45:01.976Z,33.81
2022-08-03T15:47:30.064Z,33.80
2022-08-03T15:49:57.986Z,33.76
2022-08-03T15:52:26.343Z,33.68
2022-08-03T15:54:54.301Z,33.56
2022-08-03T15:57:22.830Z,33.49
2022-08-03T15:59:52.085Z,33.39
2022-08-03T16:02:20.744Z,33.34
2022-08-03T16:04:49.051Z,33.31
2022-08-03T16:07:36.916Z,33.21
2022-08-03T16:10:05.258Z,33.11
2022-08-03T16:12:33.740Z,33.08
2022-08-03T16:15:02.483Z,33.00
2022-08-03T16:17:30.749Z,33.00
2022-08-03T16:19:58.781Z,33.04
2022-08-03T16:22:28.826Z,33.00
2022-08-03T16:24:58.696Z,32.91
2022-08-03T16:27:58.161Z,32.83
2022-08-03T16:30:18.787Z,32.74
2022-08-03T16:32:47.405Z,32.73
2022-08-03T16:35:19.663Z,32.71
2022-08-03T16:37:54.550Z,32.68
2022-08-03T16:40:25.772Z,32.68
2022-08-03T16:42:53.858Z,32.66
2022-08-03T16:45:22.507Z,32.63
2022-08-03T16:48:01.566Z,32.59
2022-08-03T16:50:35.713Z,32.59
2022-08-03T16:53:09.144Z,32.55
2022-08-03T16:55:48.936Z,32.51
2022-08-03T16:58:42.689Z,32.48
2022-08-03T17:01:22.603Z,32.43
2022-08-03T17:04:01.561Z,32.39
2022-08-03T17:06:35.662Z,32.37
2022-08-03T17:09:09.939Z,32.32
2022-08-03T17:11:47.135Z,32.26
2022-08-03T17:14:28.553Z,32.20
2022-08-03T17:17:03.826Z,32.13
2022-08-03T17:19:35.189Z,32.11
2022-08-03T17:22:19.612Z,32.06
2022-08-03T17:24:52.308Z,32.00
2022-08-03T17:28:50.493Z,31.93
2022-08-03T17:30:15.905Z,31.87
2022-08-03T17:32:57.685Z,31.76
2022-08-03T17:35:36.559Z,31.68
2022-08-03T17:38:10.527Z,31.61
2022-08-03T17:40:50.291Z,31.50
2022-08-03T17:44:13.250Z,31.40
2022-08-03T17:46:19.771Z,31.33
2022-08-03T17:48:48.840Z,31.28
2022-08-03T17:51:30.813Z,31.20
2022-08-03T17:54:20.867Z,31.10
2022-08-03T17:57:22.128Z,31.04
2022-08-03T18:00:27.430Z,30.96
2022-08-03T18:03:21.368Z,30.86
2022-08-03T18:06:08.942Z,30.77
2022-08-03T18:09:04.708Z,30.69
2022-08-03T18:11:35.888Z,30.62
2022-08-03T18:14:23.940Z,30.52
2022-08-03T18:17:01.993Z,30.42
2022-08-03T18:20:01.317Z,30.35
2022-08-03T18:22:25.215Z,30.27
2022-08-03T18:24:55.942Z,30.19
2022-08-03T18:27:24.730Z,30.12
2022-08-03T18:30:13.129Z,30.04
2022-08-03T18:32:43.585Z,29.97
2022-08-03T18:35:53.105Z,29.89
2022-08-03T18:38:19.092Z,29.79
2022-08-03T18:40:49.638Z,29.72
2022-08-03T18:43:20.836Z,29.65
2022-08-03T18:46:22.802Z,29.59
2022-08-03T18:49:17.257Z,29.51
2022-08-03T18:51:47.142Z,29.43
2022-08-03T18:54:58.225Z,29.38
2022-08-03T18:57:13.319Z,29.31
2022-08-03T19:00:24.360Z,29.27
2022-08-03T19:03:09.560Z,29.21
2022-08-03T19:06:02.217Z,29.15
2022-08-03T19:09:07.368Z,29.08
2022-08-03T19:12:14.387Z,29.00
2022-08-03T19:14:42.662Z,28.93
2022-08-03T19:17:12.223Z,28.89
2022-08-03T19:19:48.096Z,28.84
2022-08-03T19:22:21.335Z,28.79
2022-08-03T19:24:53.248Z,28.71
2022-08-03T19:27:26.822Z,28.67
2022-08-03T19:30:01.241Z,28.61
2022-08-03T19:32:33.497Z,28.56
2022-08-03T19:35:03.785Z,28.49
2022-08-03T19:37:38.557Z,28.44
2022-08-03T19:40:10.996Z,28.40
2022-08-03T19:42:45.657Z,28.33
2022-08-03T19:45:21.245Z,28.26
2022-08-03T19:47:56.679Z,28.17
2022-08-03T19:50:26.899Z,28.06
2022-08-03T19:53:00.742Z,27.94
2022-08-03T19:55:29.932Z,27.83
2022-08-03T19:58:04.096Z,27.72
2022-08-03T20:00:36.974Z,27.62
2022-08-03T20:03:21.688Z,27.51
2022-08-03T20:05:52.211Z,27.41
2022-08-03T20:08:22.517Z,27.30
2022-08-03T20:10:51.382Z,27.21
2022-08-03T20:13:20.852Z,27.15
2022-08-03T20:15:48.925Z,27.09
2022-08-03T20:18:21.814Z,27.03
2022-08-03T20:20:52.576Z,26.99
2022-08-03T20:23:21.496Z,26.95
2022-08-03T20:25:58.252Z,26.89
2022-08-03T20:28:49.728Z,26.85
2022-08-03T20:31:23.793Z,26.81
2022-08-03T20:34:00.633Z,26.76
2022-08-03T20:36:28.529Z,26.71
2022-08-03T20:38:59.984Z,26.68
2022-08-03T20:41:28.476Z,26.64
2022-08-03T20:44:01.111Z,26.58
2022-08-03T20:46:38.521Z,26.55
2022-08-03T20:49:23.235Z,26.46
2022-08-03T20:51:53.634Z,26.39
2022-08-03T20:54:29.184Z,26.35
2022-08-03T20:57:00.138Z,26.30
2022-08-03T20:59:36.888Z,26.28
2022-08-03T21:02:19.658Z,26.24
2022-08-03T21:04:58.560Z,26.18
2022-08-03T21:08:04.139Z,26.14
2022-08-03T21:10:19.146Z,26.10
2022-08-03T21:13:17.013Z,26.03
2022-08-03T21:16:12.012Z,25.97
2022-08-03T21:18:52.086Z,25.91
2022-08-03T21:21:22.964Z,25.86
2022-08-03T21:23:53.877Z,25.77
2022-08-03T21:26:24.809Z,25.71
2022-08-03T21:28:56.749Z,25.66
2022-08-03T21:31:26.534Z,25.62
2022-08-03T21:34:02.108Z,25.59
2022-08-03T21:36:33.388Z,25.57
2022-08-03T21:39:02.757Z,25.56
2022-08-03T21:41:32.556Z,25.53
2022-08-03T21:44:01.306Z,25.53
2022-08-03T21:46:38.063Z,25.49
2022-08-03T21:49:51.814Z,25.43
2022-08-03T21:51:59.655Z,25.38
2022-08-03T21:54:30.467Z,25.33
2022-08-03T21:57:05.041Z,25.28
2022-08-03T21:59:37.197Z,25.22
2022-08-03T22:02:20.058Z,25.16
2022-08-03T22:04:56.233Z,25.13
2022-08-03T22:07:27.540Z,25.08
2022-08-03T22:09:56.578Z,25.07
2022-08-03T22:12:26.671Z,25.04
2022-08-03T22:15:01.409Z,24.99
2022-08-03T22:17:55.811Z,24.96
2022-08-03T22:20:21.903Z,24.96
2022-08-03T22:22:55.707Z,24.92
2022-08-03T22:25:29.323Z,24.90
2022-08-03T22:28:12.027Z,24.89
2022-08-03T22:30:41.964Z,24.86
2022-08-03T22:33:12.877Z,24.85
2022-08-03T22:35:47.736Z,24.84
2022-08-03T22:38:18.166Z,24.81
2022-08-03T22:40:47.922Z,24.78
2022-08-03T22:43:16.967Z,24.77
2022-08-03T22:46:08.835Z,24.74
2022-08-03T22:48:41.334Z,24.70
2022-08-03T22:51:10.879Z,24.67
2022-08-03T22:53:40.857Z,24.66
2022-08-03T22:56:09.104Z,24.63
2022-08-03T22:58:37.576Z,24.61
2022-08-03T23:01:11.800Z,24.60
2022-08-03T23:04:00.956Z,24.56
2022-08-03T23:06:40.856Z,24.51
2022-08-03T23:09:11.264Z,24.47
2022-08-03T23:11:45.468Z,24.42
2022-08-03T23:14:16.833Z,24.39
2022-08-03T23:16:47.142Z,24.36
2022-08-03T23:19:25.299Z,24.35
2022-08-03T23:22:02.596Z,24.32
2022-08-03T23:24:36.248Z,24.29
2022-08-03T23:27:07.337Z,24.27
2022-08-03T23:29:37.610Z,24.28
2022-08-03T23:32:06.372Z,24.27
2022-08-03T23:34:53.974Z,24.25
2022-08-03T23:37:24.657Z,24.23
2022-08-03T23:39:54.788Z,24.21
2022-08-03T23:42:23.744Z,24.17
2022-08-03T23:44:55.447Z,24.12
2022-08-03T23:47:24.797Z,24.08
2022-08-03T23:50:13.122Z,24.04
2022-08-03T23:52:53.188Z,23.99
2022-08-03T23:55:27.080Z,23.92
2022-08-03T23:58:12.700Z,23.88
